sensor_id;sensor_type;location;lat;lon;timestamp;P1;durP1;ratioP1;P2;durP2;ratioP2
13345;SDS011;6742;48.036;15.780;2022-10-16T00:01:14;365.07;;;349.97;;
13345;SDS011;6742;48.036;15.780;2022-10-16T00:03:43;369.30;;;354.10;;
13345;SDS011;6742;48.036;15.780;2022-10-16T00:06:11;349.80;;;335.30;;
13345;SDS011;6742;48.036;15.780;2022-10-16T00:08:39;309.27;;;296.37;;
13345;SDS011;6742;48.036;15.780;2022-10-16T00:11:09;308.70;;;296.00;;
13345;SDS011;6742;48.036;15.780;2022-10-16T00:13:38;322.37;;;308.93;;
13345;SDS011;6742;48.036;15.780;2022-10-16T00:16:06;299.90;;;287.40;;
13345;SDS011;6742;48.036;15.780;2022-10-16T00:18:35;384.13;;;368.20;;
13345;SDS011;6742;48.036;15.780;2022-10-16T00:21:02;351.67;;;336.97;;
13345;SDS011;6742;48.036;15.780;2022-10-16T00:23:34;342.70;;;328.47;;
13345;SDS011;6742;48.036;15.780;2022-10-16T00:26:02;304.10;;;291.37;;
13345;SDS011;6742;48.036;15.780;2022-10-16T00:28:33;318.67;;;305.43;;
13345;SDS011;6742;48.036;15.780;2022-10-16T00:31:02;300.07;;;287.53;;
13345;SDS011;6742;48.036;15.780;2022-10-16T00:33:29;315.43;;;302.20;;
13345;SDS011;6742;48.036;15.780;2022-10-16T00:35:57;306.63;;;293.77;;
13345;SDS011;6742;48.036;15.780;2022-10-16T00:38:24;396.65;;;380.95;;
13345;SDS011;6742;48.036;15.780;2022-10-16T00:40:54;401.80;;;385.07;;
13345;SDS011;6742;48.036;15.780;2022-10-16T00:43:36;375.00;;;360.20;;
13345;SDS011;6742;48.036;15.780;2022-10-16T00:46:09;388.33;;;372.33;;
13345;SDS011;6742;48.036;15.780;2022-10-16T00:48:41;333.10;;;319.23;;
13345;SDS011;6742;48.036;15.780;2022-10-16T00:51:10;372.55;;;357.90;;
13345;SDS011;6742;48.036;15.780;2022-10-16T00:53:37;284.33;;;273.43;;
13345;SDS011;6742;48.036;15.780;2022-10-16T00:56:05;234.85;;;225.85;;
13345;SDS011;6742;48.036;15.780;2022-10-16T00:58:32;335.97;;;322.73;;
13345;SDS011;6742;48.036;15.780;2022-10-16T01:01:00;329.13;;;315.97;;
13345;SDS011;6742;48.036;15.780;2022-10-16T01:03:29;304.10;;;291.67;;
13345;SDS011;6742;48.036;15.780;2022-10-16T01:06:01;280.67;;;268.90;;
13345;SDS011;6742;48.036;15.780;2022-10-16T01:08:43;247.20;;;236.83;;
13345;SDS011;6742;48.036;15.780;2022-10-16T01:11:21;231.50;;;221.57;;
13345;SDS011;6742;48.036;15.780;2022-10-16T01:13:53;277.80;;;266.13;;
13345;SDS011;6742;48.036;15.780;2022-10-16T01:16:24;232.00;;;222.17;;
13345;SDS011;6742;48.036;15.780;2022-10-16T01:18:59;348.90;;;334.63;;
13345;SDS011;6742;48.036;15.780;2022-10-16T01:21:32;272.90;;;261.53;;
13345;SDS011;6742;48.036;15.780;2022-10-16T01:24:06;304.77;;;292.30;;
13345;SDS011;6742;48.036;15.780;2022-10-16T01:26:41;266.57;;;255.40;;
13345;SDS011;6742;48.036;15.780;2022-10-16T01:29:20;282.93;;;271.17;;
13345;SDS011;6742;48.036;15.780;2022-10-16T01:31:53;285.03;;;273.17;;
13345;SDS011;6742;48.036;15.780;2022-10-16T01:34:28;298.57;;;286.10;;
13345;SDS011;6742;48.036;15.780;2022-10-16T01:37:02;291.70;;;279.50;;
13345;SDS011;6742;48.036;15.780;2022-10-16T01:39:33;265.67;;;254.50;;
13345;SDS011;6742;48.036;15.780;2022-10-16T01:42:06;287.47;;;275.57;;
13345;SDS011;6742;48.036;15.780;2022-10-16T01:44:38;319.00;;;305.87;;
13345;SDS011;6742;48.036;15.780;2022-10-16T01:47:07;311.67;;;298.90;;
13345;SDS011;6742;48.036;15.780;2022-10-16T01:49:37;316.13;;;303.13;;
13345;SDS011;6742;48.036;15.780;2022-10-16T01:52:08;308.90;;;296.07;;
13345;SDS011;6742;48.036;15.780;2022-10-16T01:54:41;312.90;;;299.83;;
13345;SDS011;6742;48.036;15.780;2022-10-16T01:57:12;370.77;;;355.50;;
13345;SDS011;6742;48.036;15.780;2022-10-16T01:59:42;328.27;;;314.67;;
13345;SDS011;6742;48.036;15.780;2022-10-16T02:02:12;323.47;;;310.10;;
13345;SDS011;6742;48.036;15.780;2022-10-16T02:04:42;324.87;;;311.47;;
13345;SDS011;6742;48.036;15.780;2022-10-16T02:07:10;284.03;;;272.23;;
13345;SDS011;6742;48.036;15.780;2022-10-16T02:09:38;294.67;;;282.33;;
13345;SDS011;6742;48.036;15.780;2022-10-16T02:12:06;306.93;;;294.00;;
13345;SDS011;6742;48.036;15.780;2022-10-16T02:14:38;307.50;;;294.57;;
13345;SDS011;6742;48.036;15.780;2022-10-16T02:17:11;269.37;;;257.87;;
13345;SDS011;6742;48.036;15.780;2022-10-16T02:19:39;303.50;;;290.87;;
13345;SDS011;6742;48.036;15.780;2022-10-16T02:22:08;295.83;;;283.60;;
13345;SDS011;6742;48.036;15.780;2022-10-16T02:24:39;313.90;;;300.47;;
13345;SDS011;6742;48.036;15.780;2022-10-16T02:27:15;274.43;;;262.90;;
13345;SDS011;6742;48.036;15.780;2022-10-16T02:29:52;365.73;;;350.63;;
13345;SDS011;6742;48.036;15.780;2022-10-16T02:32:26;349.97;;;335.60;;
13345;SDS011;6742;48.036;15.780;2022-10-16T02:34:57;307.33;;;294.63;;
13345;SDS011;6742;48.036;15.780;2022-10-16T02:37:25;367.37;;;352.07;;
13345;SDS011;6742;48.036;15.780;2022-10-16T02:39:55;320.13;;;306.77;;
13345;SDS011;6742;48.036;15.780;2022-10-16T02:42:27;305.83;;;293.17;;
13345;SDS011;6742;48.036;15.780;2022-10-16T02:44:55;286.83;;;274.90;;
13345;SDS011;6742;48.036;15.780;2022-10-16T02:47:22;289.20;;;277.20;;
13345;SDS011;6742;48.036;15.780;2022-10-16T02:49:50;357.17;;;342.63;;
13345;SDS011;6742;48.036;15.780;2022-10-16T02:52:17;291.60;;;279.57;;
13345;SDS011;6742;48.036;15.780;2022-10-16T02:54:47;299.40;;;287.13;;
13345;SDS011;6742;48.036;15.780;2022-10-16T02:57:14;285.03;;;273.07;;
13345;SDS011;6742;48.036;15.780;2022-10-16T02:59:41;281.50;;;269.77;;
13345;SDS011;6742;48.036;15.780;2022-10-16T03:02:08;278.93;;;267.33;;
13345;SDS011;6742;48.036;15.780;2022-10-16T03:04:35;291.27;;;279.23;;
13345;SDS011;6742;48.036;15.780;2022-10-16T03:07:03;284.00;;;272.37;;
13345;SDS011;6742;48.036;15.780;2022-10-16T03:09:30;299.63;;;287.33;;
13345;SDS011;6742;48.036;15.780;2022-10-16T03:11:57;292.83;;;280.73;;
13345;SDS011;6742;48.036;15.780;2022-10-16T03:14:24;275.90;;;264.50;;
13345;SDS011;6742;48.036;15.780;2022-10-16T03:16:51;302.87;;;290.40;;
13345;SDS011;6742;48.036;15.780;2022-10-16T03:19:18;356.57;;;342.03;;
13345;SDS011;6742;48.036;15.780;2022-10-16T03:21:45;279.53;;;268.00;;
13345;SDS011;6742;48.036;15.780;2022-10-16T03:24:13;285.10;;;273.37;;
13345;SDS011;6742;48.036;15.780;2022-10-16T03:26:40;289.47;;;277.43;;
13345;SDS011;6742;48.036;15.780;2022-10-16T03:29:07;293.87;;;281.77;;
13345;SDS011;6742;48.036;15.780;2022-10-16T03:31:34;299.27;;;286.83;;
13345;SDS011;6742;48.036;15.780;2022-10-16T03:34:01;363.53;;;348.53;;
13345;SDS011;6742;48.036;15.780;2022-10-16T03:36:28;307.27;;;294.30;;
13345;SDS011;6742;48.036;15.780;2022-10-16T03:38:59;297.67;;;285.50;;
13345;SDS011;6742;48.036;15.780;2022-10-16T03:41:27;284.13;;;272.30;;
13345;SDS011;6742;48.036;15.780;2022-10-16T03:43:54;289.90;;;277.80;;
13345;SDS011;6742;48.036;15.780;2022-10-16T03:46:21;301.47;;;288.63;;
13345;SDS011;6742;48.036;15.780;2022-10-16T03:48:48;286.53;;;274.50;;
13345;SDS011;6742;48.036;15.780;2022-10-16T03:51:15;288.53;;;276.53;;
13345;SDS011;6742;48.036;15.780;2022-10-16T03:53:45;276.87;;;265.30;;
13345;SDS011;6742;48.036;15.780;2022-10-16T03:56:12;308.37;;;295.57;;
13345;SDS011;6742;48.036;15.780;2022-10-16T03:58:40;282.93;;;271.23;;
13345;SDS011;6742;48.036;15.780;2022-10-16T04:01:07;292.53;;;280.20;;
13345;SDS011;6742;48.036;15.780;2022-10-16T04:03:37;297.13;;;284.53;;
13345;SDS011;6742;48.036;15.780;2022-10-16T04:06:04;297.03;;;284.33;;
13345;SDS011;6742;48.036;15.780;2022-10-16T04:08:31;283.63;;;271.80;;
13345;SDS011;6742;48.036;15.780;2022-10-16T04:10:59;272.63;;;261.13;;
13345;SDS011;6742;48.036;15.780;2022-10-16T04:13:29;347.97;;;333.63;;
13345;SDS011;6742;48.036;15.780;2022-10-16T04:15:57;306.90;;;294.03;;
13345;SDS011;6742;48.036;15.780;2022-10-16T04:18:24;266.20;;;255.10;;
13345;SDS011;6742;48.036;15.780;2022-10-16T04:20:52;283.20;;;271.23;;
13345;SDS011;6742;48.036;15.780;2022-10-16T04:23:19;293.20;;;280.87;;
13345;SDS011;6742;48.036;15.780;2022-10-16T04:25:47;321.33;;;307.50;;
13345;SDS011;6742;48.036;15.780;2022-10-16T04:28:14;286.57;;;274.67;;
13345;SDS011;6742;48.036;15.780;2022-10-16T04:30:41;311.47;;;298.60;;
13345;SDS011;6742;48.036;15.780;2022-10-16T04:33:10;297.03;;;284.80;;
13345;SDS011;6742;48.036;15.780;2022-10-16T04:35:37;275.10;;;263.67;;
13345;SDS011;6742;48.036;15.780;2022-10-16T04:38:04;290.27;;;278.20;;
13345;SDS011;6742;48.036;15.780;2022-10-16T04:40:31;301.20;;;288.73;;
13345;SDS011;6742;48.036;15.780;2022-10-16T04:43:01;310.13;;;297.33;;
13345;SDS011;6742;48.036;15.780;2022-10-16T04:45:28;257.77;;;247.00;;
13345;SDS011;6742;48.036;15.780;2022-10-16T04:47:56;337.67;;;323.90;;
13345;SDS011;6742;48.036;15.780;2022-10-16T04:50:30;330.30;;;316.57;;
13345;SDS011;6742;48.036;15.780;2022-10-16T04:52:57;294.30;;;282.20;;
13345;SDS011;6742;48.036;15.780;2022-10-16T04:55:24;338.67;;;324.77;;
13345;SDS011;6742;48.036;15.780;2022-10-16T04:57:51;300.90;;;288.40;;
13345;SDS011;6742;48.036;15.780;2022-10-16T05:00:18;295.53;;;283.33;;
13345;SDS011;6742;48.036;15.780;2022-10-16T05:02:49;307.97;;;295.37;;
13345;SDS011;6742;48.036;15.780;2022-10-16T05:05:16;303.30;;;290.63;;
13345;SDS011;6742;48.036;15.780;2022-10-16T05:07:45;277.87;;;266.13;;
13345;SDS011;6742;48.036;15.780;2022-10-16T05:10:13;309.23;;;296.10;;
13345;SDS011;6742;48.036;15.780;2022-10-16T05:12:40;295.40;;;283.07;;
13345;SDS011;6742;48.036;15.780;2022-10-16T05:15:07;306.30;;;293.50;;
13345;SDS011;6742;48.036;15.780;2022-10-16T05:17:35;303.27;;;290.63;;
13345;SDS011;6742;48.036;15.780;2022-10-16T05:20:02;290.63;;;278.60;;
13345;SDS011;6742;48.036;15.780;2022-10-16T05:22:30;305.07;;;292.53;;
13345;SDS011;6742;48.036;15.780;2022-10-16T05:24:58;301.53;;;288.83;;
13345;SDS011;6742;48.036;15.780;2022-10-16T05:27:25;271.80;;;260.40;;
13345;SDS011;6742;48.036;15.780;2022-10-16T05:29:52;303.00;;;290.53;;
13345;SDS011;6742;48.036;15.780;2022-10-16T05:32:19;308.23;;;295.43;;
13345;SDS011;6742;48.036;15.780;2022-10-16T05:34:45;291.03;;;279.03;;
13345;SDS011;6742;48.036;15.780;2022-10-16T05:37:12;303.73;;;290.40;;
13345;SDS011;6742;48.036;15.780;2022-10-16T05:39:39;305.10;;;292.43;;
13345;SDS011;6742;48.036;15.780;2022-10-16T05:42:08;301.80;;;289.23;;
13345;SDS011;6742;48.036;15.780;2022-10-16T05:44:34;295.17;;;282.87;;
13345;SDS011;6742;48.036;15.780;2022-10-16T05:47:01;332.23;;;318.60;;
13345;SDS011;6742;48.036;15.780;2022-10-16T05:49:28;302.00;;;289.60;;
13345;SDS011;6742;48.036;15.780;2022-10-16T05:51:55;304.60;;;292.10;;
13345;SDS011;6742;48.036;15.780;2022-10-16T05:54:22;307.80;;;295.10;;
13345;SDS011;6742;48.036;15.780;2022-10-16T05:56:49;290.67;;;278.70;;
13345;SDS011;6742;48.036;15.780;2022-10-16T05:59:17;304.67;;;292.23;;
13345;SDS011;6742;48.036;15.780;2022-10-16T06:01:44;300.13;;;287.63;;
13345;SDS011;6742;48.036;15.780;2022-10-16T06:04:11;292.93;;;280.73;;
13345;SDS011;6742;48.036;15.780;2022-10-16T06:06:38;269.13;;;258.00;;
13345;SDS011;6742;48.036;15.780;2022-10-16T06:09:05;299.83;;;287.40;;
13345;SDS011;6742;48.036;15.780;2022-10-16T06:11:35;286.93;;;275.00;;
13345;SDS011;6742;48.036;15.780;2022-10-16T06:14:02;275.27;;;263.77;;
13345;SDS011;6742;48.036;15.780;2022-10-16T06:16:33;325.57;;;312.27;;
13345;SDS011;6742;48.036;15.780;2022-10-16T06:19:02;334.03;;;320.37;;
13345;SDS011;6742;48.036;15.780;2022-10-16T06:21:31;260.30;;;249.43;;
13345;SDS011;6742;48.036;15.780;2022-10-16T06:23:58;326.05;;;313.15;;
13345;SDS011;6742;48.036;15.780;2022-10-16T06:26:26;309.70;;;297.33;;
13345;SDS011;6742;48.036;15.780;2022-10-16T06:28:54;259.35;;;249.45;;
13345;SDS011;6742;48.036;15.780;2022-10-16T06:31:22;158.70;;;152.43;;
13345;SDS011;6742;48.036;15.780;2022-10-16T06:33:54;96.28;;;92.38;;
13345;SDS011;6742;48.036;15.780;2022-10-16T06:36:21;66.57;;;63.75;;
13345;SDS011;6742;48.036;15.780;2022-10-16T06:38:51;184.53;;;177.47;;
13345;SDS011;6742;48.036;15.780;2022-10-16T06:41:19;168.60;;;161.93;;
13345;SDS011;6742;48.036;15.780;2022-10-16T06:43:47;159.70;;;153.40;;
13345;SDS011;6742;48.036;15.780;2022-10-16T06:46:15;147.43;;;141.57;;
13345;SDS011;6742;48.036;15.780;2022-10-16T06:48:43;131.40;;;126.13;;
13345;SDS011;6742;48.036;15.780;2022-10-16T06:51:12;122.07;;;117.17;;
13345;SDS011;6742;48.036;15.780;2022-10-16T06:53:43;102.47;;;98.37;;
13345;SDS011;6742;48.036;15.780;2022-10-16T06:56:12;80.67;;;77.37;;
13345;SDS011;6742;48.036;15.780;2022-10-16T06:58:40;84.27;;;81.00;;
13345;SDS011;6742;48.036;15.780;2022-10-16T07:01:08;71.43;;;68.47;;
13345;SDS011;6742;48.036;15.780;2022-10-16T07:03:35;73.73;;;70.77;;
13345;SDS011;6742;48.036;15.780;2022-10-16T07:06:03;78.70;;;75.70;;
13345;SDS011;6742;48.036;15.780;2022-10-16T07:11:05;57.53;;;55.23;;
13345;SDS011;6742;48.036;15.780;2022-10-16T07:13:34;60.77;;;58.40;;
13345;SDS011;6742;48.036;15.780;2022-10-16T07:16:04;57.50;;;55.23;;
13345;SDS011;6742;48.036;15.780;2022-10-16T07:18:31;54.77;;;52.63;;
13345;SDS011;6742;48.036;15.780;2022-10-16T07:21:02;53.13;;;51.07;;
13345;SDS011;6742;48.036;15.780;2022-10-16T07:23:31;50.83;;;48.83;;
13345;SDS011;6742;48.036;15.780;2022-10-16T07:26:02;46.67;;;44.67;;
13345;SDS011;6742;48.036;15.780;2022-10-16T07:28:30;51.40;;;49.10;;
13345;SDS011;6742;48.036;15.780;2022-10-16T07:31:00;43.23;;;41.37;;
13345;SDS011;6742;48.036;15.780;2022-10-16T07:33:28;41.07;;;39.40;;
13345;SDS011;6742;48.036;15.780;2022-10-16T07:35:55;40.53;;;38.77;;
13345;SDS011;6742;48.036;15.780;2022-10-16T07:38:22;43.60;;;41.77;;
13345;SDS011;6742;48.036;15.780;2022-10-16T07:40:55;40.37;;;38.67;;
13345;SDS011;6742;48.036;15.780;2022-10-16T07:43:25;40.77;;;39.13;;
13345;SDS011;6742;48.036;15.780;2022-10-16T07:45:53;39.17;;;37.40;;
13345;SDS011;6742;48.036;15.780;2022-10-16T07:48:21;38.17;;;36.37;;
13345;SDS011;6742;48.036;15.780;2022-10-16T07:50:49;34.07;;;32.73;;
13345;SDS011;6742;48.036;15.780;2022-10-16T07:53:16;37.37;;;35.63;;
13345;SDS011;6742;48.036;15.780;2022-10-16T07:55:43;37.13;;;35.50;;
13345;SDS011;6742;48.036;15.780;2022-10-16T07:58:10;38.27;;;36.67;;
13345;SDS011;6742;48.036;15.780;2022-10-16T08:00:38;39.00;;;37.30;;
13345;SDS011;6742;48.036;15.780;2022-10-16T08:03:05;37.77;;;36.13;;
13345;SDS011;6742;48.036;15.780;2022-10-16T08:05:32;38.83;;;37.00;;
13345;SDS011;6742;48.036;15.780;2022-10-16T08:08:00;36.63;;;35.03;;
13345;SDS011;6742;48.036;15.780;2022-10-16T08:10:28;36.77;;;35.17;;
13345;SDS011;6742;48.036;15.780;2022-10-16T08:12:56;38.30;;;36.77;;
13345;SDS011;6742;48.036;15.780;2022-10-16T08:15:29;36.50;;;35.10;;
13345;SDS011;6742;48.036;15.780;2022-10-16T08:17:58;40.33;;;38.73;;
13345;SDS011;6742;48.036;15.780;2022-10-16T08:20:27;35.73;;;34.30;;
13345;SDS011;6742;48.036;15.780;2022-10-16T08:22:54;34.93;;;33.47;;
13345;SDS011;6742;48.036;15.780;2022-10-16T08:25:22;38.67;;;37.07;;
13345;SDS011;6742;48.036;15.780;2022-10-16T08:27:49;36.80;;;35.07;;
13345;SDS011;6742;48.036;15.780;2022-10-16T08:30:20;35.37;;;33.73;;
13345;SDS011;6742;48.036;15.780;2022-10-16T08:32:48;35.20;;;33.43;;
13345;SDS011;6742;48.036;15.780;2022-10-16T08:35:16;35.07;;;33.67;;
13345;SDS011;6742;48.036;15.780;2022-10-16T08:37:43;36.33;;;34.77;;
13345;SDS011;6742;48.036;15.780;2022-10-16T08:40:13;34.30;;;32.97;;
13345;SDS011;6742;48.036;15.780;2022-10-16T08:42:52;33.77;;;32.43;;
13345;SDS011;6742;48.036;15.780;2022-10-16T08:45:41;34.03;;;32.67;;
13345;SDS011;6742;48.036;15.780;2022-10-16T08:48:20;35.40;;;33.90;;
13345;SDS011;6742;48.036;15.780;2022-10-16T08:50:57;33.70;;;32.37;;
13345;SDS011;6742;48.036;15.780;2022-10-16T08:53:24;51.47;;;49.47;;
13345;SDS011;6742;48.036;15.780;2022-10-16T08:55:54;32.47;;;31.23;;
13345;SDS011;6742;48.036;15.780;2022-10-16T08:58:22;35.33;;;33.97;;
13345;SDS011;6742;48.036;15.780;2022-10-16T09:00:53;34.20;;;32.87;;
13345;SDS011;6742;48.036;15.780;2022-10-16T09:03:24;33.93;;;32.53;;
13345;SDS011;6742;48.036;15.780;2022-10-16T09:06:21;33.03;;;31.70;;
13345;SDS011;6742;48.036;15.780;2022-10-16T09:09:04;32.37;;;31.10;;
13345;SDS011;6742;48.036;15.780;2022-10-16T09:11:46;31.77;;;30.47;;
13345;SDS011;6742;48.036;15.780;2022-10-16T09:14:23;34.00;;;32.67;;
13345;SDS011;6742;48.036;15.780;2022-10-16T09:17:04;32.70;;;31.40;;
13345;SDS011;6742;48.036;15.780;2022-10-16T09:19:41;33.47;;;32.13;;
13345;SDS011;6742;48.036;15.780;2022-10-16T09:22:16;33.77;;;32.27;;
13345;SDS011;6742;48.036;15.780;2022-10-16T09:24:44;29.50;;;28.20;;
13345;SDS011;6742;48.036;15.780;2022-10-16T09:27:12;30.13;;;28.97;;
13345;SDS011;6742;48.036;15.780;2022-10-16T09:29:40;38.33;;;36.80;;
13345;SDS011;6742;48.036;15.780;2022-10-16T09:32:10;31.60;;;30.30;;
13345;SDS011;6742;48.036;15.780;2022-10-16T09:34:41;25.20;;;24.17;;
13345;SDS011;6742;48.036;15.780;2022-10-16T09:37:11;26.00;;;25.00;;
13345;SDS011;6742;48.036;15.780;2022-10-16T09:39:48;31.77;;;30.40;;
13345;SDS011;6742;48.036;15.780;2022-10-16T09:42:17;31.57;;;30.20;;
13345;SDS011;6742;48.036;15.780;2022-10-16T09:44:47;33.27;;;31.87;;
13345;SDS011;6742;48.036;15.780;2022-10-16T09:47:15;28.93;;;27.70;;
13345;SDS011;6742;48.036;15.780;2022-10-16T09:49:51;29.30;;;27.97;;
13345;SDS011;6742;48.036;15.780;2022-10-16T09:52:20;31.70;;;30.30;;
13345;SDS011;6742;48.036;15.780;2022-10-16T09:54:50;28.23;;;26.97;;
13345;SDS011;6742;48.036;15.780;2022-10-16T09:57:18;17.90;;;16.70;;
13345;SDS011;6742;48.036;15.780;2022-10-16T09:59:45;18.43;;;17.63;;
13345;SDS011;6742;48.036;15.780;2022-10-16T10:02:13;26.30;;;25.17;;
13345;SDS011;6742;48.036;15.780;2022-10-16T10:04:44;29.67;;;28.40;;
13345;SDS011;6742;48.036;15.780;2022-10-16T10:07:17;25.07;;;23.70;;
13345;SDS011;6742;48.036;15.780;2022-10-16T10:09:47;30.33;;;28.07;;
13345;SDS011;6742;48.036;15.780;2022-10-16T10:12:19;29.63;;;28.03;;
13345;SDS011;6742;48.036;15.780;2022-10-16T10:14:48;18.63;;;17.87;;
13345;SDS011;6742;48.036;15.780;2022-10-16T10:17:18;20.90;;;20.13;;
13345;SDS011;6742;48.036;15.780;2022-10-16T10:19:48;16.63;;;15.80;;
13345;SDS011;6742;48.036;15.780;2022-10-16T10:22:22;19.03;;;18.30;;
13345;SDS011;6742;48.036;15.780;2022-10-16T10:30:54;28.70;;;27.53;;
13345;SDS011;6742;48.036;15.780;2022-10-16T10:33:27;29.17;;;27.90;;
13345;SDS011;6742;48.036;15.780;2022-10-16T10:36:04;30.77;;;29.50;;
13345;SDS011;6742;48.036;15.780;2022-10-16T10:38:47;30.93;;;29.70;;
13345;SDS011;6742;48.036;15.780;2022-10-16T10:44:24;64.23;;;61.80;;
13345;SDS011;6742;48.036;15.780;2022-10-16T10:47:13;33.63;;;32.23;;
13345;SDS011;6742;48.036;15.780;2022-10-16T10:49:52;33.87;;;32.53;;
13345;SDS011;6742;48.036;15.780;2022-10-16T10:52:36;56.57;;;54.37;;
13345;SDS011;6742;48.036;15.780;2022-10-16T10:55:09;31.43;;;30.13;;
13345;SDS011;6742;48.036;15.780;2022-10-16T10:57:46;30.37;;;29.17;;
13345;SDS011;6742;48.036;15.780;2022-10-16T11:00:35;35.60;;;34.20;;
13345;SDS011;6742;48.036;15.780;2022-10-16T11:03:13;67.93;;;65.33;;
13345;SDS011;6742;48.036;15.780;2022-10-16T11:05:54;67.07;;;63.90;;
13345;SDS011;6742;48.036;15.780;2022-10-16T11:08:26;36.80;;;35.00;;
13345;SDS011;6742;48.036;15.780;2022-10-16T11:10:58;33.97;;;32.57;;
13345;SDS011;6742;48.036;15.780;2022-10-16T11:13:30;36.97;;;35.40;;
13345;SDS011;6742;48.036;15.780;2022-10-16T11:16:02;49.13;;;47.20;;
13345;SDS011;6742;48.036;15.780;2022-10-16T11:18:40;37.03;;;35.20;;
13345;SDS011;6742;48.036;15.780;2022-10-16T11:21:15;38.50;;;36.97;;
13345;SDS011;6742;48.036;15.780;2022-10-16T11:23:48;37.70;;;36.10;;
13345;SDS011;6742;48.036;15.780;2022-10-16T11:26:22;37.70;;;36.20;;
13345;SDS011;6742;48.036;15.780;2022-10-16T11:28:52;35.63;;;34.20;;
13345;SDS011;6742;48.036;15.780;2022-10-16T11:31:24;36.37;;;34.87;;
13345;SDS011;6742;48.036;15.780;2022-10-16T11:33:59;38.43;;;36.87;;
13345;SDS011;6742;48.036;15.780;2022-10-16T11:36:33;38.07;;;36.47;;
13345;SDS011;6742;48.036;15.780;2022-10-16T11:39:08;37.90;;;36.27;;
13345;SDS011;6742;48.036;15.780;2022-10-16T11:41:45;39.87;;;38.13;;
13345;SDS011;6742;48.036;15.780;2022-10-16T11:47:09;40.60;;;38.87;;
13345;SDS011;6742;48.036;15.780;2022-10-16T11:49:43;38.73;;;37.10;;
13345;SDS011;6742;48.036;15.780;2022-10-16T11:52:15;39.80;;;38.20;;
13345;SDS011;6742;48.036;15.780;2022-10-16T11:54:47;36.90;;;35.20;;
13345;SDS011;6742;48.036;15.780;2022-10-16T11:57:20;35.83;;;34.33;;
13345;SDS011;6742;48.036;15.780;2022-10-16T11:59:51;36.13;;;34.53;;
13345;SDS011;6742;48.036;15.780;2022-10-16T12:02:35;35.30;;;33.53;;
13345;SDS011;6742;48.036;15.780;2022-10-16T12:05:15;37.07;;;35.33;;
13345;SDS011;6742;48.036;15.780;2022-10-16T12:07:50;35.60;;;34.03;;
13345;SDS011;6742;48.036;15.780;2022-10-16T12:10:26;38.00;;;36.37;;
13345;SDS011;6742;48.036;15.780;2022-10-16T12:12:56;36.13;;;34.67;;
13345;SDS011;6742;48.036;15.780;2022-10-16T12:15:25;34.17;;;32.67;;
13345;SDS011;6742;48.036;15.780;2022-10-16T12:17:54;37.00;;;35.40;;
13345;SDS011;6742;48.036;15.780;2022-10-16T12:20:26;35.70;;;34.17;;
13345;SDS011;6742;48.036;15.780;2022-10-16T12:22:57;33.03;;;31.53;;
13345;SDS011;6742;48.036;15.780;2022-10-16T12:25:28;37.27;;;35.53;;
13345;SDS011;6742;48.036;15.780;2022-10-16T12:27:58;40.83;;;38.97;;
13345;SDS011;6742;48.036;15.780;2022-10-16T12:30:27;43.10;;;41.13;;
13345;SDS011;6742;48.036;15.780;2022-10-16T12:32:58;43.43;;;41.57;;
13345;SDS011;6742;48.036;15.780;2022-10-16T12:35:28;42.93;;;41.07;;
13345;SDS011;6742;48.036;15.780;2022-10-16T12:38:05;45.10;;;43.03;;
13345;SDS011;6742;48.036;15.780;2022-10-16T12:40:34;46.20;;;44.13;;
13345;SDS011;6742;48.036;15.780;2022-10-16T12:45:58;45.90;;;43.80;;
13345;SDS011;6742;48.036;15.780;2022-10-16T12:48:32;43.33;;;41.37;;
13345;SDS011;6742;48.036;15.780;2022-10-16T12:51:09;43.23;;;41.23;;
13345;SDS011;6742;48.036;15.780;2022-10-16T12:53:37;44.27;;;42.27;;
13345;SDS011;6742;48.036;15.780;2022-10-16T12:56:09;48.47;;;46.20;;
13345;SDS011;6742;48.036;15.780;2022-10-16T12:58:56;49.90;;;47.43;;
13345;SDS011;6742;48.036;15.780;2022-10-16T13:01:36;52.40;;;50.00;;
13345;SDS011;6742;48.036;15.780;2022-10-16T13:04:22;51.50;;;49.10;;
13345;SDS011;6742;48.036;15.780;2022-10-16T13:07:03;56.83;;;54.10;;
13345;SDS011;6742;48.036;15.780;2022-10-16T13:09:49;55.03;;;52.17;;
13345;SDS011;6742;48.036;15.780;2022-10-16T13:12:41;55.50;;;52.90;;
13345;SDS011;6742;48.036;15.780;2022-10-16T13:15:30;59.40;;;56.43;;
13345;SDS011;6742;48.036;15.780;2022-10-16T13:18:12;54.57;;;51.87;;
13345;SDS011;6742;48.036;15.780;2022-10-16T13:20:51;56.93;;;54.03;;
13345;SDS011;6742;48.036;15.780;2022-10-16T13:23:25;61.97;;;58.80;;
13345;SDS011;6742;48.036;15.780;2022-10-16T13:26:02;60.63;;;57.30;;
13345;SDS011;6742;48.036;15.780;2022-10-16T13:28:38;70.93;;;67.43;;
13345;SDS011;6742;48.036;15.780;2022-10-16T13:31:09;64.43;;;61.07;;
13345;SDS011;6742;48.036;15.780;2022-10-16T13:33:43;60.30;;;56.97;;
13345;SDS011;6742;48.036;15.780;2022-10-16T13:36:23;67.60;;;63.93;;
13345;SDS011;6742;48.036;15.780;2022-10-16T13:38:59;65.90;;;62.50;;
13345;SDS011;6742;48.036;15.780;2022-10-16T13:41:30;68.30;;;64.70;;
13345;SDS011;6742;48.036;15.780;2022-10-16T13:43:57;72.10;;;68.30;;
13345;SDS011;6742;48.036;15.780;2022-10-16T13:46:24;64.87;;;61.47;;
13345;SDS011;6742;48.036;15.780;2022-10-16T13:48:58;73.33;;;69.40;;
13345;SDS011;6742;48.036;15.780;2022-10-16T13:51:27;84.23;;;79.83;;
13345;SDS011;6742;48.036;15.780;2022-10-16T13:53:55;78.43;;;74.33;;
13345;SDS011;6742;48.036;15.780;2022-10-16T13:56:24;80.90;;;76.63;;
13345;SDS011;6742;48.036;15.780;2022-10-16T13:58:59;74.20;;;70.07;;
13345;SDS011;6742;48.036;15.780;2022-10-16T14:01:27;84.30;;;79.63;;
13345;SDS011;6742;48.036;15.780;2022-10-16T14:04:00;88.27;;;83.33;;
13345;SDS011;6742;48.036;15.780;2022-10-16T14:06:31;93.53;;;88.53;;
13345;SDS011;6742;48.036;15.780;2022-10-16T14:09:00;111.63;;;105.80;;
13345;SDS011;6742;48.036;15.780;2022-10-16T14:11:34;104.33;;;98.63;;
13345;SDS011;6742;48.036;15.780;2022-10-16T14:14:11;89.00;;;83.87;;
13345;SDS011;6742;48.036;15.780;2022-10-16T14:16:39;112.80;;;106.80;;
13345;SDS011;6742;48.036;15.780;2022-10-16T14:19:13;98.00;;;92.50;;
13345;SDS011;6742;48.036;15.780;2022-10-16T14:21:50;106.00;;;100.17;;
13345;SDS011;6742;48.036;15.780;2022-10-16T14:24:24;109.20;;;103.00;;
13345;SDS011;6742;48.036;15.780;2022-10-16T14:26:53;107.23;;;101.33;;
13345;SDS011;6742;48.036;15.780;2022-10-16T14:29:21;111.07;;;105.23;;
13345;SDS011;6742;48.036;15.780;2022-10-16T14:31:56;93.00;;;87.70;;
13345;SDS011;6742;48.036;15.780;2022-10-16T14:34:25;82.20;;;77.10;;
13345;SDS011;6742;48.036;15.780;2022-10-16T14:36:57;87.40;;;81.47;;
13345;SDS011;6742;48.036;15.780;2022-10-16T14:39:27;88.70;;;83.03;;
13345;SDS011;6742;48.036;15.780;2022-10-16T14:41:55;84.53;;;79.07;;
13345;SDS011;6742;48.036;15.780;2022-10-16T14:44:26;80.60;;;75.37;;
13345;SDS011;6742;48.036;15.780;2022-10-16T14:46:55;88.17;;;82.70;;